Time;durP1;ratioP1;P1;durP2;ratioP2;P2;SDS_P1;SDS_P2;PMS_P1;PMS_P2;Temp;Humidity;BMP_temperature;BMP_pressure;BME280_temperature;BME280_humidity;BME280_pressure;Samples;Min_cycle;Max_cycle;Signal;HPM_P1;HPM_P2
2023/02/26 00:01:47;;;;;;;;;;;;;;;16.56;46.22;99793.34;4997251;28;886;-45
2023/02/26 00:04:13;;;;;;;;;;;;;;;16.40;45.67;99792.75;4998308;28;1116;-44
2023/02/26 00:06:51;;;;;;;;;;;;;;;17.55;45.77;99796.09;4997943;28;1032;-45
2023/02/26 00:09:16;;;;;;;;;;;;;;;16.72;46.81;99801.34;4998364;28;1204;-45
2023/02/26 00:11:42;;;;;;;;;;;;;;;17.49;46.17;99796.50;4996925;28;1117;-43
2023/02/26 00:14:08;;;;;;;;;;;;;;;17.05;46.66;99802.19;4997944;28;1196;-42
2023/02/26 00:16:34;;;;;;;;;;;;;;;17.07;47.11;99813.72;5012855;28;1906;-46
2023/02/26 00:19:00;;;;;;;;;;;;;;;18.28;44.69;99812.78;4997921;28;1096;-42
2023/02/26 00:21:26;;;;;;;;;;;;;;;17.08;46.53;99798.88;4997557;28;1111;-46
2023/02/26 00:23:52;;;;;;;;;;;;;;;16.74;46.65;99816.38;4997708;28;1076;-44
2023/02/26 00:26:17;;;;;;;;;;;;;;;16.51;46.51;99796.16;4997768;28;1060;-42
2023/02/26 00:28:43;;;;;;;;;;;;;;;16.52;45.57;99799.72;4997462;28;1108;-49
2023/02/26 00:31:08;;;;;;;;;;;;;;;17.64;46.25;99800.91;4997366;28;1145;-47
2023/02/26 00:33:34;;;;;;;;;;;;;;;16.99;46.86;99806.16;4997377;28;1140;-44
2023/02/26 00:36:08;;;;;;;;;;;;;;;16.64;46.68;99811.06;4979775;28;1183;-44
2023/02/26 00:38:33;;;;;;;;;;;;;;;17.35;46.54;99807.47;4997550;28;1980;-44
2023/02/26 00:40:59;;;;;;;;;;;;;;;16.73;46.64;99812.03;4979792;28;1120;-45
2023/02/26 00:43:27;;;;;;;;;;;;;;;16.53;46.40;99806.84;4997201;28;1199;-46
2023/02/26 00:45:56;;;;;;;;;;;;;;;17.51;45.80;99805.25;4997359;28;1091;-41
2023/02/26 00:48:31;;;;;;;;;;;;;;;16.63;47.18;99801.19;4996990;28;1195;-41
2023/02/26 00:51:20;;;;;;;;;;;;;;;17.00;46.83;99798.72;5012551;28;1070;-42
2023/02/26 00:53:49;;;;;;;;;;;;;;;17.03;47.06;99796.19;4998835;28;1365;-46
2023/02/26 00:56:14;;;;;;;;;;;;;;;16.74;46.80;99793.63;5012519;28;1115;-45
2023/02/26 00:58:39;;;;;;;;;;;;;;;16.49;46.49;99781.91;4997031;28;1910;-44
2023/02/26 01:01:06;;;;;;;;;;;;;;;16.47;46.48;99789.63;4997165;28;1029;-47
2023/02/26 01:03:32;;;;;;;;;;;;;;;16.99;46.52;99806.16;4978946;28;1206;-43
2023/02/26 01:05:57;;;;;;;;;;;;;;;16.40;47.05;99790.00;4997183;28;1141;-44
2023/02/26 01:08:30;;;;;;;;;;;;;;;16.62;47.17;99785.84;5012119;28;1163;-43
2023/02/26 01:10:56;;;;;;;;;;;;;;;16.88;47.06;99789.03;5011966;28;1310;-48
2023/02/26 01:13:22;;;;;;;;;;;;;;;16.47;46.83;99775.13;5011664;28;1274;-43
2023/02/26 01:15:49;;;;;;;;;;;;;;;17.97;45.20;99776.88;4996815;28;1109;-46
2023/02/26 01:18:19;;;;;;;;;;;;;;;16.83;46.89;99780.84;4995343;28;1906;-43
2023/02/26 01:20:50;;;;;;;;;;;;;;;16.57;46.55;99780.44;4995633;28;1162;-45
2023/02/26 01:23:17;;;;;;;;;;;;;;;16.38;46.20;99784.00;4996646;28;1056;-44
2023/02/26 01:25:42;;;;;;;;;;;;;;;17.14;46.27;99779.53;5011730;28;908;-45
2023/02/26 01:28:08;;;;;;;;;;;;;;;16.66;47.02;99767.69;4996689;28;1227;-43
2023/02/26 01:30:33;;;;;;;;;;;;;;;17.37;46.57;99775.81;4997042;28;1056;-46
2023/02/26 01:32:59;;;;;;;;;;;;;;;17.82;45.75;99777.16;4996362;28;1113;-43
2023/02/26 01:35:36;;;;;;;;;;;;;;;16.95;47.07;99788.66;4996458;28;1152;-42
2023/02/26 01:38:03;;;;;;;;;;;;;;;16.58;46.82;99779.34;4996660;28;1910;-47
2023/02/26 01:40:35;;;;;;;;;;;;;;;16.45;46.17;99780.06;5011509;28;1225;-47
2023/02/26 01:43:10;;;;;;;;;;;;;;;16.94;47.05;99792.50;4996535;28;1147;-46
2023/02/26 01:45:38;;;;;;;;;;;;;;;16.49;46.90;99789.34;5012199;28;1044;-43
2023/02/26 01:48:05;;;;;;;;;;;;;;;17.65;45.98;99800.59;4998811;28;1196;-44
2023/02/26 01:50:34;;;;;;;;;;;;;;;16.69;47.06;99801.94;5015703;28;938;-45
2023/02/26 01:53:02;;;;;;;;;;;;;;;16.43;46.80;99785.84;4983080;28;1182;-46
2023/02/26 01:55:28;;;;;;;;;;;;;;;16.30;46.29;99803.03;4999933;28;1069;-44
2023/02/26 01:57:54;;;;;;;;;;;;;;;17.70;45.90;99802.44;5015554;28;1910;-46
2023/02/26 02:00:19;;;;;;;;;;;;;;;16.69;47.02;99807.41;4998845;28;1061;-45
2023/02/26 02:02:45;;;;;;;;;;;;;;;16.91;47.13;99806.84;5000163;28;977;-45
2023/02/26 02:05:20;;;;;;;;;;;;;;;17.22;46.72;99814.56;4982605;28;1256;-47
2023/02/26 02:07:45;;;;;;;;;;;;;;;16.60;47.17;99807.28;4982892;28;1111;-43
2023/02/26 02:10:11;;;;;;;;;;;;;;;16.76;47.51;99811.44;4982662;28;1200;-44
2023/02/26 02:12:36;;;;;;;;;;;;;;;16.86;47.16;99812.41;4999965;28;1089;-43
2023/02/26 02:15:10;;;;;;;;;;;;;;;16.49;46.81;99814.84;4982461;28;1296;-44
2023/02/26 02:17:36;;;;;;;;;;;;;;;16.39;46.42;99815.78;5014841;28;1973;-41
2023/02/26 02:20:25;;;;;;;;;;;;;;;17.43;46.20;99832.34;4999734;28;1056;-43
2023/02/26 02:22:58;;;;;;;;;;;;;;;16.39;47.59;99829.50;4999738;28;1206;-43
2023/02/26 02:25:36;;;;;;;;;;;;;;;16.38;46.37;99830.66;4981834;28;1409;-41
2023/02/26 02:28:16;;;;;;;;;;;;;;;17.24;46.37;99839.81;4999797;28;1227;-46
2023/02/26 02:30:54;;;;;;;;;;;;;;;16.48;46.81;99834.34;4999439;28;1187;-45
2023/02/26 02:33:22;;;;;;;;;;;;;;;17.90;45.46;99834.22;4988752;28;1037;-46
2023/02/26 02:35:55;;;;;;;;;;;;;;;17.15;46.77;99841.59;5014520;28;1068;-45
2023/02/26 02:38:34;;;;;;;;;;;;;;;16.55;47.21;99834.78;5014447;28;1914;-44
2023/02/26 02:41:11;;;;;;;;;;;;;;;17.31;46.91;99828.44;4998166;28;1647;-43
2023/02/26 02:43:36;;;;;;;;;;;;;;;16.86;47.04;99829.69;5011402;28;1172;-44
2023/02/26 02:46:02;;;;;;;;;;;;;;;16.55;46.77;99843.03;4978416;28;1120;-45
2023/02/26 02:48:35;;;;;;;;;;;;;;;16.91;47.00;99842.53;4978742;28;1444;-47
2023/02/26 02:51:02;;;;;;;;;;;;;;;16.85;47.29;99840.97;4978376;28;987;-42
2023/02/26 02:53:57;;;;;;;;;;;;;;;17.10;46.94;99853.50;4962620;28;1325;-42
2023/02/26 02:56:24;;;;;;;;;;;;;;;17.87;45.69;99856.84;4960357;28;1298;-44
2023/02/26 02:58:59;;;;;;;;;;;;;;;16.97;47.04;99857.84;4978802;28;1293;-42
2023/02/26 03:01:25;;;;;;;;;;;;;;;16.58;46.86;99864.41;4978299;28;1040;-45
2023/02/26 03:03:56;;;;;;;;;;;;;;;16.56;46.27;99847.41;4978733;28;1113;-46
2023/02/26 03:06:23;;;;;;;;;;;;;;;17.39;46.63;99858.78;4979277;28;1117;-48
2023/02/26 03:08:48;;;;;;;;;;;;;;;16.68;47.21;99849.72;4979663;28;1200;-43
2023/02/26 03:11:14;;;;;;;;;;;;;;;16.50;46.50;99865.06;4978202;28;1133;-45
2023/02/26 03:13:40;;;;;;;;;;;;;;;16.31;46.14;99863.09;4978071;28;1169;-45
2023/02/26 03:16:26;;;;;;;;;;;;;;;17.36;46.35;99875.06;4978125;28;1170;-46
2023/02/26 03:19:10;;;;;;;;;;;;;;;16.65;47.20;99872.25;4962429;28;2226;-44
2023/02/26 03:21:45;;;;;;;;;;;;;;;18.23;45.17;99878.13;4978153;28;1206;-46
2023/02/26 03:24:22;;;;;;;;;;;;;;;16.92;47.55;99871.63;4978077;28;1548;-46
2023/02/26 03:27:05;;;;;;;;;;;;;;;16.66;47.02;99882.97;4977990;28;1158;-46
2023/02/26 03:29:36;;;;;;;;;;;;;;;16.40;46.60;99880.53;4961763;28;1226;-46
2023/02/26 03:32:04;;;;;;;;;;;;;;;17.16;46.59;99866.03;4979109;28;1137;-43
2023/02/26 03:34:31;;;;;;;;;;;;;;;16.58;46.97;99867.16;4978004;28;1184;-47
2023/02/26 03:36:59;;;;;;;;;;;;;;;16.48;46.24;99881.00;4977822;28;1914;-45
2023/02/26 03:39:28;;;;;;;;;;;;;;;17.55;46.05;99894.25;4958485;28;1203;-44
2023/02/26 03:42:00;;;;;;;;;;;;;;;16.65;47.24;99889.56;4993983;28;1206;-43
2023/02/26 03:44:32;;;;;;;;;;;;;;;16.53;46.82;99880.94;4966358;28;1447;-43
2023/02/26 03:46:59;;;;;;;;;;;;;;;17.22;46.60;99896.97;4961722;28;1352;-47
2023/02/26 03:49:28;;;;;;;;;;;;;;;16.64;47.01;99904.38;4977270;28;1171;-45
2023/02/26 03:51:53;;;;;;;;;;;;;;;18.19;45.22;99901.88;4977607;28;1124;-43
2023/02/26 03:54:44;;;;;;;;;;;;;;;17.06;46.95;99899.97;4975612;28;1124;-44
2023/02/26 03:57:38;;;;;;;;;;;;;;;16.70;46.40;99905.13;4977682;28;1966;-44
2023/02/26 04:00:19;;;;;;;;;;;;;;;16.47;46.14;99904.88;5009630;28;1646;-44
2023/02/26 04:02:54;;;;;;;;;;;;;;;16.84;46.55;99910.72;4978371;28;913;-47
2023/02/26 04:05:20;;;;;;;;;;;;;;;17.02;46.98;99901.69;4977229;28;1325;-43
2023/02/26 04:07:46;;;;;;;;;;;;;;;16.58;46.97;99917.38;4977075;28;1148;-44
2023/02/26 04:10:13;;;;;;;;;;;;;;;16.88;47.09;99906.25;4976841;28;1089;-47
2023/02/26 04:12:38;;;;;;;;;;;;;;;17.00;46.87;99894.84;4977292;28;1119;-42
2023/02/26 04:15:07;;;;;;;;;;;;;;;16.51;46.84;99897.69;4977175;28;1246;-45
2023/02/26 04:17:33;;;;;;;;;;;;;;;16.41;46.39;99903.31;4977825;28;1906;-45
2023/02/26 04:19:59;;;;;;;;;;;;;;;17.22;46.51;99906.06;5009652;28;1268;-45
2023/02/26 04:22:25;;;;;;;;;;;;;;;16.90;46.94;99909.53;4977009;28;1001;-46
2023/02/26 04:24:50;;;;;;;;;;;;;;;16.55;47.01;99908.88;4976949;28;1102;-46
2023/02/26 04:27:16;;;;;;;;;;;;;;;16.35;46.40;99921.75;4976622;28;1355;-44
2023/02/26 04:29:42;;;;;;;;;;;;;;;17.49;46.28;99914.69;5008796;28;1186;-44
2023/02/26 04:32:07;;;;;;;;;;;;;;;16.68;47.21;99927.38;4981705;28;1252;-47
2023/02/26 04:34:33;;;;;;;;;;;;;;;16.48;46.66;99916.66;4977769;28;1224;-46
2023/02/26 04:36:58;;;;;;;;;;;;;;;16.36;46.53;99922.59;5009306;28;1968;-45
2023/02/26 04:39:24;;;;;;;;;;;;;;;17.21;46.43;99911.84;5008681;28;1278;-46
2023/02/26 04:41:49;;;;;;;;;;;;;;;16.49;47.42;99929.28;4976450;28;1281;-51
2023/02/26 04:44:15;;;;;;;;;;;;;;;16.26;46.61;99923.53;4976665;28;1254;-49
2023/02/26 04:46:41;;;;;;;;;;;;;;;16.87;46.87;99923.84;4978037;28;1076;-48
2023/02/26 04:49:06;;;;;;;;;;;;;;;16.55;47.08;99936.34;4976399;28;1165;-48
2023/02/26 04:51:32;;;;;;;;;;;;;;;16.75;46.99;99932.53;4976382;28;1146;-46
2023/02/26 04:53:57;;;;;;;;;;;;;;;17.59;45.77;99934.56;4976240;28;1231;-49
2023/02/26 04:56:23;;;;;;;;;;;;;;;16.59;47.53;99929.97;4977058;28;1236;-48
2023/02/26 04:58:48;;;;;;;;;;;;;;;16.51;46.55;99938.88;4976520;28;2051;-48
2023/02/26 05:01:20;;;;;;;;;;;;;;;16.32;46.33;99947.03;5008654;28;2496;-46
2023/02/26 05:03:46;;;;;;;;;;;;;;;17.04;46.95;99940.66;5008451;28;1133;-46
2023/02/26 05:06:13;;;;;;;;;;;;;;;16.48;47.16;99955.09;5017176;28;1119;-50
2023/02/26 05:08:41;;;;;;;;;;;;;;;16.29;46.62;99963.28;4975774;28;1156;-48
2023/02/26 05:11:07;;;;;;;;;;;;;;;16.88;46.98;99962.00;4983799;28;1105;-48
2023/02/26 05:13:33;;;;;;;;;;;;;;;16.60;47.55;99981.00;4980047;28;1071;-48
2023/02/26 05:15:59;;;;;;;;;;;;;;;18.40;44.95;99977.44;4976830;28;840;-46
2023/02/26 05:18:25;;;;;;;;;;;;;;;17.24;47.31;99988.19;5008288;28;1977;-46
2023/02/26 05:20:53;;;;;;;;;;;;;;;16.76;46.92;99994.56;5008336;28;1291;-48
2023/02/26 05:23:19;;;;;;;;;;;;;;;16.48;46.54;99999.00;5008406;28;1422;-49
2023/02/26 05:25:45;;;;;;;;;;;;;;;16.35;46.14;99995.84;4976730;28;1001;-48
2023/02/26 05:28:10;;;;;;;;;;;;;;;17.12;46.86;100007.03;5008193;28;1216;-49
2023/02/26 05:30:37;;;;;;;;;;;;;;;16.56;47.30;100012.06;4976840;28;2456;-46
2023/02/26 05:33:02;;;;;;;;;;;;;;;18.36;45.30;100005.88;4975379;28;1049;-47
2023/02/26 05:35:28;;;;;;;;;;;;;;;17.40;47.03;100014.31;4976664;28;1125;-47
2023/02/26 05:37:53;;;;;;;;;;;;;;;16.88;47.16;100021.59;4976613;28;1981;-48
2023/02/26 05:40:19;;;;;;;;;;;;;;;16.61;47.10;100025.75;4975858;28;1017;-47
2023/02/26 05:42:44;;;;;;;;;;;;;;;16.54;46.51;100011.56;4976695;28;1064;-45
2023/02/26 05:45:10;;;;;;;;;;;;;;;16.36;46.19;100019.44;4994754;28;1153;-46
2023/02/26 05:47:35;;;;;;;;;;;;;;;17.25;46.46;100022.75;4996120;28;1271;-50
2023/02/26 05:50:01;;;;;;;;;;;;;;;16.54;47.17;100017.06;4996013;28;1200;-48
2023/02/26 05:52:27;;;;;;;;;;;;;;;16.39;46.78;100024.31;4995802;28;1214;-50
2023/02/26 05:54:52;;;;;;;;;;;;;;;16.97;46.81;100025.34;4996099;28;1109;-53
2023/02/26 05:57:18;;;;;;;;;;;;;;;16.43;47.09;100014.41;4995879;28;1906;-49
2023/02/26 05:59:43;;;;;;;;;;;;;;;18.10;45.63;100015.41;4995611;28;1126;-47
2023/02/26 06:02:08;;;;;;;;;;;;;;;17.15;47.10;100020.97;4995440;28;1843;-47
2023/02/26 06:04:34;;;;;;;;;;;;;;;16.71;47.03;100020.13;4995112;28;1139;-50
2023/02/26 06:07:00;;;;;;;;;;;;;;;16.74;46.94;100030.53;4995154;28;1204;-46
2023/02/26 06:09:25;;;;;;;;;;;;;;;17.16;47.33;100027.31;4995358;28;1255;-47
2023/02/26 06:11:50;;;;;;;;;;;;;;;16.68;47.32;100028.97;4996078;28;1160;-49
2023/02/26 06:14:16;;;;;;;;;;;;;;;16.98;46.38;100024.22;4995671;28;1159;-47
2023/02/26 06:16:41;;;;;;;;;;;;;;;17.43;45.68;100023.88;4995365;28;1902;-48
2023/02/26 06:19:07;;;;;;;;;;;;;;;16.96;46.97;100037.44;4995626;28;1138;-48
2023/02/26 06:21:32;;;;;;;;;;;;;;;16.74;47.46;100036.00;4996203;28;1275;-47
2023/02/26 06:23:57;;;;;;;;;;;;;;;16.54;48.12;100042.56;4995202;28;1115;-45
2023/02/26 06:26:23;;;;;;;;;;;;;;;16.42;48.47;100033.91;4996182;28;1096;-46
2023/02/26 06:28:48;;;;;;;;;;;;;;;16.28;48.60;100041.19;4995386;28;1088;-48
2023/02/26 06:31:14;;;;;;;;;;;;;;;16.21;48.92;100047.00;4995685;28;1824;-46
2023/02/26 06:33:39;;;;;;;;;;;;;;;16.07;49.30;100047.69;4999030;28;1036;-47
2023/02/26 06:36:05;;;;;;;;;;;;;;;15.98;49.46;100041.19;4999052;28;1098;-47
2023/02/26 06:38:30;;;;;;;;;;;;;;;15.87;49.79;100043.19;4999074;28;1906;-45
2023/02/26 06:40:55;;;;;;;;;;;;;;;15.83;49.96;100050.34;4998878;28;1017;-46
2023/02/26 06:43:21;;;;;;;;;;;;;;;15.78;49.72;100058.59;4998861;28;1158;-46
2023/02/26 06:45:47;;;;;;;;;;;;;;;15.69;50.04;100065.78;4999260;28;997;-44
2023/02/26 06:48:12;;;;;;;;;;;;;;;15.59;50.26;100052.97;4998980;28;1069;-47
2023/02/26 06:50:39;;;;;;;;;;;;;;;15.52;50.62;100061.50;4998504;28;1153;-46
2023/02/26 06:53:05;;;;;;;;;;;;;;;15.51;50.47;100070.81;4998988;28;1113;-45
2023/02/26 06:55:30;;;;;;;;;;;;;;;15.40;50.59;100070.06;4998776;28;1057;-47
2023/02/26 06:57:55;;;;;;;;;;;;;;;15.33;50.93;100063.25;4998966;28;1906;-49
2023/02/26 07:00:21;;;;;;;;;;;;;;;16.18;49.20;100083.25;4998447;28;2280;-47
2023/02/26 07:02:47;;;;;;;;;;;;;;;17.34;46.21;100084.19;4998700;28;1084;-46
2023/02/26 07:05:12;;;;;;;;;;;;;;;16.29;48.77;100075.75;4998932;28;1144;-44
2023/02/26 07:07:38;;;;;;;;;;;;;;;15.95;49.59;100074.66;4998750;28;1044;-45
2023/02/26 07:10:03;;;;;;;;;;;;;;;15.80;49.93;100077.53;4998583;28;1191;-47
2023/02/26 07:12:29;;;;;;;;;;;;;;;15.66;50.18;100078.13;4998405;28;1085;-45
2023/02/26 07:14:54;;;;;;;;;;;;;;;15.50;50.91;100084.81;4998215;28;1037;-46
2023/02/26 07:17:20;;;;;;;;;;;;;;;15.46;50.78;100087.31;4998571;28;1894;-46
2023/02/26 07:19:46;;;;;;;;;;;;;;;16.29;49.13;100084.81;4997739;28;1141;-43
2023/02/26 07:22:11;;;;;;;;;;;;;;;17.17;46.62;100108.63;4998312;28;1044;-46
2023/02/26 07:24:37;;;;;;;;;;;;;;;16.22;49.12;100109.00;4998084;28;989;-47
2023/02/26 07:27:02;;;;;;;;;;;;;;;15.88;49.79;100098.84;4997900;28;1172;-44
2023/02/26 07:29:27;;;;;;;;;;;;;;;15.76;50.33;100095.63;4998179;28;1161;-44
2023/02/26 07:31:53;;;;;;;;;;;;;;;15.58;50.62;100097.91;4997839;28;2515;-47
2023/02/26 07:34:18;;;;;;;;;;;;;;;15.49;50.86;100099.63;4998303;28;1033;-47
2023/02/26 07:36:44;;;;;;;;;;;;;;;15.71;50.43;100102.78;4997966;28;1909;-45
2023/02/26 07:39:09;;;;;;;;;;;;;;;17.26;46.39;100096.69;4998089;28;1117;-44
2023/02/26 07:41:35;;;;;;;;;;;;;;;16.50;48.19;100104.63;4998297;28;1101;-48
2023/02/26 07:44:00;;;;;;;;;;;;;;;16.03;49.36;100086.94;4996665;28;1058;-44
2023/02/26 07:46:26;;;;;;;;;;;;;;;15.81;50.24;100093.69;4998472;28;1136;-44
2023/02/26 07:48:51;;;;;;;;;;;;;;;15.68;50.25;100097.88;4998135;28;1064;-44
2023/02/26 07:51:17;;;;;;;;;;;;;;;15.53;50.60;100082.31;4997992;28;1009;-45
2023/02/26 07:53:42;;;;;;;;;;;;;;;15.45;51.16;100082.91;4997693;28;1112;-49
2023/02/26 07:56:08;;;;;;;;;;;;;;;15.36;51.41;100090.91;4997654;28;1100;-44
2023/02/26 07:58:34;;;;;;;;;;;;;;;16.05;49.79;100091.03;4998012;28;1988;-46
2023/02/26 08:00:59;;;;;;;;;;;;;;;17.35;46.48;100094.09;4997388;28;1863;-50
2023/02/26 08:03:25;;;;;;;;;;;;;;;16.35;48.84;100085.56;4996831;28;1218;-46
2023/02/26 08:05:50;;;;;;;;;;;;;;;15.95;49.65;100091.13;4997421;28;1345;-45
2023/02/26 08:08:16;;;;;;;;;;;;;;;15.75;50.38;100089.28;4997178;28;1278;-44
2023/02/26 08:10:41;;;;;;;;;;;;;;;15.60;50.77;100082.00;4997391;28;1302;-45
2023/02/26 08:13:06;;;;;;;;;;;;;;;15.47;51.13;100086.19;4997072;28;1321;-47
2023/02/26 08:15:32;;;;;;;;;;;;;;;15.48;51.00;100090.56;4996928;28;1290;-44
2023/02/26 08:17:57;;;;;;;;;;;;;;;17.09;47.16;100086.16;4996862;28;1906;-43
2023/02/26 08:20:23;;;;;;;;;;;;;;;16.70;47.98;100098.09;4997223;28;1368;-47
2023/02/26 08:22:51;;;;;;;;;;;;;;;16.07;49.46;100088.00;4996842;28;1263;-43
2023/02/26 08:25:17;;;;;;;;;;;;;;;15.80;50.35;100085.75;4997057;28;1349;-44
2023/02/26 08:27:42;;;;;;;;;;;;;;;15.68;50.65;100070.44;4996817;28;1322;-45
2023/02/26 08:30:08;;;;;;;;;;;;;;;15.56;50.73;100075.47;4997046;28;1021;-45
2023/02/26 08:32:34;;;;;;;;;;;;;;;15.49;51.14;100072.22;4996696;28;2555;-45
2023/02/26 08:34:59;;;;;;;;;;;;;;;15.35;51.43;100078.31;4996771;28;1286;-46
2023/02/26 08:37:25;;;;;;;;;;;;;;;16.69;48.10;100071.78;4996410;28;1975;-45
2023/02/26 08:39:50;;;;;;;;;;;;;;;16.80;47.44;100068.91;4996972;28;1048;-48
2023/02/26 08:42:16;;;;;;;;;;;;;;;16.10;49.62;100060.00;4996963;28;1033;-43
2023/02/26 08:44:42;;;;;;;;;;;;;;;15.84;50.00;100068.44;4996589;28;1158;-42
2023/02/26 08:47:07;;;;;;;;;;;;;;;15.66;50.59;100071.84;4997004;28;989;-43
2023/02/26 08:49:33;;;;;;;;;;;;;;;15.54;50.89;100075.75;4996625;28;1161;-47
2023/02/26 08:51:58;;;;;;;;;;;;;;;15.44;50.99;100064.84;4996685;28;1027;-44
2023/02/26 08:54:24;;;;;;;;;;;;;;;16.63;48.21;100063.88;4996771;28;958;-54
2023/02/26 08:56:49;;;;;;;;;;;;;;;16.94;47.15;100053.38;4996510;28;1910;-54
2023/02/26 08:59:15;;;;;;;;;;;;;;;16.11;49.36;100056.16;4996048;28;1020;-45
2023/02/26 09:01:40;;;;;;;;;;;;;;;15.86;50.00;100060.72;4996648;28;2628;-46
2023/02/26 09:04:06;;;;;;;;;;;;;;;15.72;50.39;100060.56;4996539;28;1115;-46
2023/02/26 09:06:31;;;;;;;;;;;;;;;15.60;50.88;100072.97;4996572;28;1155;-46
2023/02/26 09:08:57;;;;;;;;;;;;;;;15.51;50.82;100070.00;4997069;28;1105;-45
2023/02/26 09:11:22;;;;;;;;;;;;;;;15.40;51.31;100061.84;4996609;28;1156;-43
2023/02/26 09:13:47;;;;;;;;;;;;;;;16.04;49.88;100058.41;4996504;28;1025;-44
2023/02/26 09:16:13;;;;;;;;;;;;;;;17.40;46.27;100052.81;4996629;28;1024;-44
2023/02/26 09:18:39;;;;;;;;;;;;;;;16.49;48.63;100056.34;5011571;28;1988;-48
2023/02/26 09:21:05;;;;;;;;;;;;;;;16.04;49.65;100063.91;4996459;28;1091;-45
2023/02/26 09:23:30;;;;;;;;;;;;;;;15.82;50.15;100058.84;4996213;28;1036;-45
2023/02/26 09:25:56;;;;;;;;;;;;;;;15.70;50.77;100067.44;4996492;28;1009;-47
2023/02/26 09:28:21;;;;;;;;;;;;;;;15.60;50.84;100062.84;4996117;28;1009;-44
2023/02/26 09:30:49;;;;;;;;;;;;;;;15.53;51.09;100074.09;4995845;28;2431;-45
2023/02/26 09:33:15;;;;;;;;;;;;;;;16.21;49.40;100071.69;4996419;28;1075;-43
2023/02/26 09:35:40;;;;;;;;;;;;;;;17.26;46.84;100065.63;4995805;28;1060;-46
2023/02/26 09:38:07;;;;;;;;;;;;;;;16.26;49.05;100082.63;4996184;28;1905;-46
2023/02/26 09:40:37;;;;;;;;;;;;;;;15.91;50.32;100079.91;4995542;28;1104;-45
2023/02/26 09:43:16;;;;;;;;;;;;;;;15.77;50.54;100078.03;5011495;28;1299;-43
2023/02/26 09:45:42;;;;;;;;;;;;;;;15.61;51.19;100085.56;5011302;28;1060;-45
2023/02/26 09:48:08;;;;;;;;;;;;;;;15.52;51.09;100077.13;5011612;28;1107;-47
2023/02/26 09:50:37;;;;;;;;;;;;;;;15.45;51.57;100066.47;5010905;28;1048;-46
2023/02/26 09:53:23;;;;;;;;;;;;;;;16.45;49.13;100060.75;5011479;28;1036;-46
2023/02/26 09:55:49;;;;;;;;;;;;;;;17.19;46.91;100045.94;4983606;28;1784;-45
2023/02/26 09:58:14;;;;;;;;;;;;;;;16.30;49.46;100050.78;4996348;28;1910;-45
2023/02/26 10:00:43;;;;;;;;;;;;;;;15.98;50.35;100052.16;4996229;28;1068;-45
2023/02/26 10:03:22;;;;;;;;;;;;;;;15.76;51.02;100057.25;5011482;28;1221;-44
2023/02/26 10:05:56;;;;;;;;;;;;;;;15.69;50.93;100055.63;5011156;28;948;-46
2023/02/26 10:08:22;;;;;;;;;;;;;;;15.53;51.49;100060.41;4999935;28;1259;-44
2023/02/26 10:11:23;;;;;;;;;;;;;;;15.48;51.32;100048.66;5015004;28;1164;-47
2023/02/26 10:13:57;;;;;;;;;;;;;;;16.71;48.72;100035.81;4978367;28;1215;-43
2023/02/26 10:16:24;;;;;;;;;;;;;;;16.63;48.49;100040.00;4979382;28;1055;-43
2023/02/26 10:19:15;;;;;;;;;;;;;;;16.02;50.23;100053.22;4999808;28;1913;-43
2023/02/26 10:21:46;;;;;;;;;;;;;;;15.76;51.23;100049.03;4998184;28;1555;-47
2023/02/26 10:24:16;;;;;;;;;;;;;;;15.62;51.22;100048.84;5015310;28;1064;-48
2023/02/26 10:26:49;;;;;;;;;;;;;;;15.52;51.62;100049.72;5003807;28;1069;-43
2023/02/26 10:29:22;;;;;;;;;;;;;;;16.15;50.31;100050.91;4999195;28;1381;-43
2023/02/26 10:31:59;;;;;;;;;;;;;;;17.13;47.52;100052.63;5014581;28;1250;-47
2023/02/26 10:34:35;;;;;;;;;;;;;;;16.16;49.80;100047.06;5014703;28;1142;-45
2023/02/26 10:37:10;;;;;;;;;;;;;;;15.85;50.65;100047.31;4999384;28;1906;-47
2023/02/26 10:39:42;;;;;;;;;;;;;;;15.67;51.45;100063.31;4999679;28;1017;-45
2023/02/26 10:42:15;;;;;;;;;;;;;;;15.55;51.62;100062.84;4998585;28;1286;-46
2023/02/26 10:44:47;;;;;;;;;;;;;;;15.53;51.52;100062.34;5014749;28;1156;-44
2023/02/26 10:47:17;;;;;;;;;;;;;;;16.03;50.58;100046.63;4999506;28;1267;-45
2023/02/26 10:49:46;;;;;;;;;;;;;;;17.38;47.04;100038.53;5014012;28;1194;-43
2023/02/26 10:52:16;;;;;;;;;;;;;;;16.40;49.48;100033.41;4998414;28;1256;-45
2023/02/26 10:55:04;;;;;;;;;;;;;;;15.97;50.64;100025.84;4998841;28;1042;-42
2023/02/26 10:57:33;;;;;;;;;;;;;;;15.79;51.08;100026.50;4988720;28;1992;-48
2023/02/26 10:59:59;;;;;;;;;;;;;;;15.60;51.35;100029.94;4999396;28;1243;-44
2023/02/26 11:02:33;;;;;;;;;;;;;;;15.52;51.44;100038.78;5013169;28;1167;-45
2023/02/26 11:04:59;;;;;;;;;;;;;;;15.42;51.75;100042.41;5014051;28;1220;-45
2023/02/26 11:07:24;;;;;;;;;;;;;;;15.39;52.01;100045.72;4998804;28;1148;-46
2023/02/26 11:09:49;;;;;;;;;;;;;;;15.26;52.37;100049.88;5013603;28;1199;-43
2023/02/26 11:12:16;;;;;;;;;;;;;;;16.86;48.33;100051.28;4999064;28;1208;-49
2023/02/26 11:14:42;;;;;;;;;;;;;;;16.63;48.62;100056.47;4999182;28;1233;-48
2023/02/26 11:17:28;;;;;;;;;;;;;;;15.97;50.42;100060.69;4998352;28;1973;-47
2023/02/26 11:19:56;;;;;;;;;;;;;;;15.73;51.28;100056.69;5013727;28;1032;-47
2023/02/26 11:22:23;;;;;;;;;;;;;;;15.59;51.64;100058.44;4998716;28;1132;-48
2023/02/26 11:24:48;;;;;;;;;;;;;;;15.44;52.03;100058.53;5013882;28;1064;-50
2023/02/26 11:27:15;;;;;;;;;;;;;;;15.39;51.93;100052.00;5014057;28;1138;-46
2023/02/26 11:29:41;;;;;;;;;;;;;;;16.28;50.21;100049.44;4998157;28;1152;-45
2023/02/26 11:32:17;;;;;;;;;;;;;;;17.23;47.40;100036.00;4998718;28;1065;-47
2023/02/26 11:34:49;;;;;;;;;;;;;;;16.19;50.21;100035.53;4998866;28;1206;-43
2023/02/26 11:37:18;;;;;;;;;;;;;;;15.86;50.88;100043.47;4998401;28;1906;-43
2023/02/26 11:39:44;;;;;;;;;;;;;;;15.70;51.64;100043.56;4998661;28;1088;-44
2023/02/26 11:42:09;;;;;;;;;;;;;;;15.55;51.77;100040.94;5013436;28;961;-44
2023/02/26 11:44:44;;;;;;;;;;;;;;;15.49;52.10;100048.38;5010108;28;1169;-48
2023/02/26 11:47:12;;;;;;;;;;;;;;;15.33;52.10;100058.63;5009809;28;1142;-48
2023/02/26 11:49:45;;;;;;;;;;;;;;;16.11;50.71;100061.63;4978601;28;1103;-46
2023/02/26 11:52:10;;;;;;;;;;;;;;;17.12;47.96;100061.97;5009796;28;1079;-46
2023/02/26 11:54:36;;;;;;;;;;;;;;;16.18;50.15;100066.78;4977882;28;1199;-47
2023/02/26 11:57:05;;;;;;;;;;;;;;;15.84;51.13;100067.63;4979002;28;1963;-47
2023/02/26 11:59:30;;;;;;;;;;;;;;;15.69;51.60;100063.84;4978294;28;1092;-46
2023/02/26 12:01:56;;;;;;;;;;;;;;;15.56;51.99;100078.19;4978002;28;1220;-47
2023/02/26 12:04:23;;;;;;;;;;;;;;;16.12;50.80;100073.41;5009322;28;1409;-45
2023/02/26 12:06:49;;;;;;;;;;;;;;;17.33;47.20;100068.81;4978067;28;1045;-47
2023/02/26 12:09:15;;;;;;;;;;;;;;;16.30;50.15;100085.59;5009084;28;1163;-44
2023/02/26 12:11:55;;;;;;;;;;;;;;;15.98;50.98;100084.25;5017082;28;1024;-44
2023/02/26 12:14:39;;;;;;;;;;;;;;;15.79;51.38;100079.44;5008834;28;1024;-49
2023/02/26 12:17:08;;;;;;;;;;;;;;;15.63;51.75;100083.38;4977867;28;2339;-45
2023/02/26 12:20:16;;;;;;;;;;;;;;;15.53;51.98;100089.75;4978062;28;982;-44
2023/02/26 12:22:53;;;;;;;;;;;;;;;17.25;47.85;100089.53;4985678;28;1111;-42
2023/02/26 12:25:22;;;;;;;;;;;;;;;16.35;49.87;100093.78;4965896;28;1199;-46
2023/02/26 12:28:02;;;;;;;;;;;;;;;15.99;50.95;100080.38;4977503;28;1084;-43
2023/02/26 12:30:46;;;;;;;;;;;;;;;15.74;51.60;100085.75;4976938;28;858;-45
2023/02/26 12:33:15;;;;;;;;;;;;;;;15.58;51.92;100084.22;4977939;28;1148;-47
2023/02/26 12:35:49;;;;;;;;;;;;;;;15.53;52.03;100095.22;4977802;28;1085;-47
2023/02/26 12:38:18;;;;;;;;;;;;;;;15.37;52.41;100099.94;4977475;28;1981;-43
2023/02/26 12:40:49;;;;;;;;;;;;;;;15.57;51.79;100099.00;5008863;28;1403;-46
2023/02/26 12:43:34;;;;;;;;;;;;;;;17.15;48.20;100094.34;4979939;28;1283;-45
2023/02/26 12:46:18;;;;;;;;;;;;;;;16.29;50.21;100098.50;4994889;28;2213;-46
2023/02/26 12:49:03;;;;;;;;;;;;;;;15.85;51.25;100096.66;5011831;28;1156;-43
2023/02/26 12:51:40;;;;;;;;;;;;;;;15.68;51.57;100097.88;4996945;28;996;-45
2023/02/26 12:54:06;;;;;;;;;;;;;;;15.53;51.76;100095.22;4996266;28;1164;-45
2023/02/26 12:56:42;;;;;;;;;;;;;;;15.45;52.33;100093.06;4996695;28;1088;-43
2023/02/26 12:59:22;;;;;;;;;;;;;;;17.09;48.21;100080.66;5011712;28;1963;-45